createdAt,value
2017-06-01T00:01:56.149Z,6.48
2017-06-01T00:04:24.389Z,5.80
2017-06-01T00:06:52.618Z,6.34
2017-06-01T00:09:20.870Z,7.08
2017-06-01T00:11:49.089Z,6.90
2017-06-01T00:14:17.325Z,6.42
2017-06-01T00:19:38.895Z,7.96
2017-06-01T00:22:07.134Z,7.00
2017-06-01T00:24:35.353Z,6.66
2017-06-01T00:27:03.603Z,8.96
2017-06-01T00:29:31.837Z,7.20
2017-06-01T00:32:00.070Z,8.24
2017-06-01T00:34:28.307Z,9.36
2017-06-01T00:36:56.545Z,8.86
2017-06-01T00:39:24.765Z,8.72
2017-06-01T00:41:53.010Z,8.76
2017-06-01T00:44:21.230Z,9.48
2017-06-01T00:46:49.465Z,9.06
2017-06-01T00:49:17.694Z,8.24
2017-06-01T00:51:45.922Z,7.28
2017-06-01T00:54:14.158Z,7.94
2017-06-01T00:56:42.379Z,8.14
2017-06-01T00:59:09.850Z,10.28
2017-06-01T01:01:38.078Z,10.18
2017-06-01T01:04:06.317Z,11.16
2017-06-01T01:06:34.547Z,11.18
2017-06-01T01:09:02.781Z,10.42
2017-06-01T01:11:31.021Z,10.64
2017-06-01T01:13:59.263Z,9.30
2017-06-01T01:19:39.413Z,10.24
2017-06-01T01:22:07.633Z,8.22
2017-06-01T01:24:35.861Z,8.76
2017-06-01T01:27:04.096Z,8.86
2017-06-01T01:29:31.575Z,8.70
2017-06-01T01:31:59.801Z,9.54
2017-06-01T01:34:28.062Z,7.80
2017-06-01T01:36:56.297Z,9.10
2017-06-01T01:39:23.753Z,9.12
2017-06-01T01:41:51.995Z,8.60
2017-06-01T01:44:20.214Z,9.18
2017-06-01T01:46:48.460Z,8.74
2017-06-01T01:49:16.690Z,9.34
2017-06-01T01:51:44.926Z,9.24
2017-06-01T01:54:13.154Z,8.86
2017-06-01T01:56:41.393Z,8.28
2017-06-01T01:59:09.617Z,8.86
2017-06-01T02:01:37.850Z,7.80
2017-06-01T02:04:06.073Z,8.22
2017-06-01T02:06:34.329Z,8.02
2017-06-01T02:09:02.547Z,7.70
2017-06-01T02:11:30.775Z,8.42
2017-06-01T02:13:59.478Z,8.02
2017-06-01T02:19:32.678Z,8.90
2017-06-01T02:22:00.901Z,9.66
2017-06-01T02:24:29.158Z,11.98
2017-06-01T02:26:57.385Z,10.48
2017-06-01T02:29:25.629Z,11.52
2017-06-01T02:31:53.862Z,10.46
2017-06-01T02:34:22.101Z,10.68
2017-06-01T02:36:50.333Z,9.74
2017-06-01T02:39:18.574Z,9.50
2017-06-01T02:41:46.789Z,8.60
2017-06-01T02:44:15.041Z,9.10
2017-06-01T02:46:43.270Z,7.20
2017-06-01T02:49:11.485Z,7.66
2017-06-01T02:51:39.718Z,7.58
2017-06-01T02:54:07.948Z,6.38
2017-06-01T02:56:36.185Z,6.52
2017-06-01T02:59:04.405Z,6.18
2017-06-01T03:01:32.655Z,6.96
2017-06-01T03:04:00.906Z,6.64
2017-06-01T03:06:29.129Z,5.76
2017-06-01T03:08:57.401Z,6.70
2017-06-01T03:11:25.613Z,7.66
2017-06-01T03:13:53.833Z,6.78
2017-06-01T03:19:33.949Z,7.24
2017-06-01T03:22:02.187Z,6.68
2017-06-01T03:24:30.410Z,8.12
2017-06-01T03:26:58.658Z,7.34
2017-06-01T03:29:26.882Z,7.84
2017-06-01T03:31:55.106Z,7.44
2017-06-01T03:34:23.359Z,7.92
2017-06-01T03:36:51.573Z,6.48
2017-06-01T03:39:19.813Z,6.32
2017-06-01T03:41:48.026Z,6.18
2017-06-01T03:44:16.268Z,6.34
2017-06-01T03:46:44.494Z,5.72
2017-06-01T03:49:12.731Z,6.08
2017-06-01T03:51:40.945Z,6.14
2017-06-01T03:54:09.185Z,6.48
2017-06-01T03:56:37.413Z,6.92
2017-06-01T03:59:05.645Z,5.62
2017-06-01T04:01:33.886Z,7.06
2017-06-01T04:04:02.109Z,5.72
2017-06-01T04:06:30.342Z,7.00
2017-06-01T04:08:58.565Z,5.58
2017-06-01T04:11:26.805Z,6.54
2017-06-01T04:13:55.030Z,6.54
2017-06-01T04:30:55.098Z,8.14
2017-06-01T04:33:23.350Z,8.02
2017-06-01T04:35:51.570Z,6.42
2017-06-01T04:38:19.806Z,8.04
2017-06-01T04:40:48.039Z,5.68
2017-06-01T04:43:16.277Z,5.82
2017-06-01T04:45:44.498Z,5.64
2017-06-01T04:48:12.745Z,5.80
2017-06-01T04:50:40.982Z,6.16
2017-06-01T04:53:09.217Z,5.82
2017-06-01T04:55:37.447Z,6.08
2017-06-01T04:58:05.665Z,5.80
2017-06-01T05:00:33.894Z,5.66
2017-06-01T05:03:02.113Z,6.30
2017-06-01T05:05:30.355Z,4.52
2017-06-01T05:07:58.574Z,4.98
2017-06-01T05:10:26.814Z,5.28
2017-06-01T05:12:55.025Z,4.26
2017-06-01T05:15:23.267Z,4.42
2017-06-01T05:17:51.481Z,3.74
2017-06-01T05:20:19.721Z,4.02
2017-06-01T05:22:47.939Z,3.56
2017-06-01T05:25:16.175Z,3.54
2017-06-01T05:27:44.402Z,3.54
2017-06-01T05:30:12.634Z,3.18
2017-06-01T05:32:40.854Z,4.16
2017-06-01T05:35:09.083Z,3.12
2017-06-01T05:37:37.328Z,3.42
2017-06-01T05:40:05.550Z,4.54
2017-06-01T05:42:33.787Z,4.18
2017-06-01T05:45:02.014Z,5.40
2017-06-01T05:47:30.250Z,5.54
2017-06-01T05:49:58.481Z,4.88
2017-06-01T05:52:26.717Z,5.48
2017-06-01T05:54:54.949Z,5.34
2017-06-01T05:57:23.166Z,5.60
2017-06-01T05:59:51.410Z,5.74
2017-06-01T06:02:19.625Z,5.34
2017-06-01T06:04:47.854Z,6.44
2017-06-01T06:07:16.073Z,7.16
2017-06-01T06:09:44.310Z,6.10
2017-06-01T06:12:12.534Z,6.44
2017-06-01T06:14:40.765Z,6.78
2017-06-01T06:17:08.985Z,5.62
2017-06-01T06:19:37.230Z,6.48
2017-06-01T06:22:05.458Z,6.56
2017-06-01T06:24:33.690Z,5.98
2017-06-01T06:27:01.923Z,6.58
2017-06-01T06:29:30.149Z,7.58
2017-06-01T06:31:58.381Z,6.44
2017-06-01T06:34:26.598Z,6.68
2017-06-01T06:36:54.842Z,6.70
2017-06-01T06:39:23.074Z,6.66
2017-06-01T06:41:52.221Z,6.10
2017-06-01T06:44:20.431Z,5.86
2017-06-01T06:46:48.674Z,6.90
2017-06-01T06:49:16.902Z,7.14
2017-06-01T06:51:45.130Z,7.60
2017-06-01T06:54:13.350Z,7.28
2017-06-01T06:56:41.595Z,6.92
2017-06-01T06:59:09.825Z,6.92
2017-06-01T07:01:38.045Z,7.60
2017-06-01T07:04:06.283Z,6.94
2017-06-01T07:06:34.501Z,7.48
2017-06-01T07:09:02.741Z,6.46
2017-06-01T07:11:30.957Z,6.30
2017-06-01T07:13:59.198Z,6.50
2017-06-01T07:16:27.421Z,6.84
2017-06-01T07:18:55.653Z,6.12
2017-06-01T07:21:23.870Z,5.82
2017-06-01T07:23:52.130Z,5.44
2017-06-01T07:26:20.354Z,6.02
2017-06-01T07:28:48.569Z,6.62
2017-06-01T07:31:16.822Z,5.96
2017-06-01T07:33:45.050Z,5.58
2017-06-01T07:36:13.290Z,5.72
2017-06-01T07:38:41.511Z,5.94
2017-06-01T07:41:09.754Z,5.74
2017-06-01T07:43:37.973Z,5.86
2017-06-01T07:46:06.212Z,5.96
2017-06-01T07:48:34.450Z,5.56
2017-06-01T07:51:02.701Z,6.10
2017-06-01T07:53:30.931Z,6.12
2017-06-01T07:55:59.157Z,4.52
2017-06-01T07:58:26.626Z,4.66
2017-06-01T08:00:54.846Z,5.38
2017-06-01T08:03:23.083Z,4.76
2017-06-01T08:05:51.309Z,4.06
2017-06-01T08:08:19.549Z,4.20
2017-06-01T08:10:47.774Z,4.40
2017-06-01T08:13:16.018Z,3.78
2017-06-01T08:15:44.239Z,5.42
2017-06-01T08:18:12.486Z,4.60
2017-06-01T08:20:40.724Z,3.90
2017-06-01T08:23:08.961Z,4.28
2017-06-01T08:25:37.197Z,5.38
2017-06-01T08:28:05.430Z,5.66
2017-06-01T08:30:33.666Z,5.16
2017-06-01T08:33:01.886Z,5.76
2017-06-01T08:35:30.135Z,5.58
2017-06-01T08:37:58.369Z,5.70
2017-06-01T08:40:26.611Z,5.92
2017-06-01T08:42:54.841Z,5.50
2017-06-01T08:45:23.082Z,5.28
2017-06-01T08:47:51.314Z,5.58
2017-06-01T08:50:19.554Z,5.18
2017-06-01T08:52:47.785Z,4.50
2017-06-01T08:55:16.017Z,5.44
2017-06-01T08:57:44.241Z,4.94
2017-06-01T09:00:12.486Z,4.68
2017-06-01T09:02:40.714Z,4.54
2017-06-01T09:05:08.942Z,4.56
2017-06-01T09:07:36.417Z,4.02
2017-06-01T09:10:04.645Z,4.50
2017-06-01T09:12:32.885Z,4.10
2017-06-01T09:15:01.113Z,4.30
2017-06-01T09:17:29.354Z,4.88
2017-06-01T09:19:57.598Z,4.30
2017-06-01T09:22:25.834Z,4.02
2017-06-01T09:24:54.062Z,4.10
2017-06-01T09:27:22.302Z,3.64
2017-06-01T09:29:50.530Z,3.54
2017-06-01T09:32:18.771Z,3.68
2017-06-01T09:34:47.009Z,4.66
2017-06-01T09:37:15.264Z,3.54
2017-06-01T09:39:43.502Z,4.60
2017-06-01T09:42:11.730Z,4.16
2017-06-01T09:44:39.974Z,3.82
2017-06-01T09:47:08.206Z,4.72
2017-06-01T09:49:36.468Z,4.50
2017-06-01T09:52:04.689Z,4.00
2017-06-01T09:54:32.925Z,4.70
2017-06-01T09:57:01.149Z,5.30
2017-06-01T09:59:29.398Z,4.18
2017-06-01T10:01:57.624Z,4.04
2017-06-01T10:04:25.873Z,5.32
2017-06-01T10:06:54.110Z,4.22
2017-06-01T10:09:22.349Z,4.22
2017-06-01T10:11:50.586Z,3.70
2017-06-01T10:14:18.831Z,3.78
2017-06-01T10:16:47.056Z,3.82
2017-06-01T10:19:15.278Z,3.70
2017-06-01T10:21:43.530Z,4.52
2017-06-01T10:24:11.754Z,3.48
2017-06-01T10:26:40.008Z,4.38
2017-06-01T10:29:08.251Z,4.34
2017-06-01T10:31:36.485Z,4.20
2017-06-01T10:34:04.726Z,4.24
2017-06-01T10:36:32.965Z,3.86
2017-06-01T10:39:01.194Z,4.68
2017-06-01T10:41:28.685Z,4.38
2017-06-01T10:43:57.210Z,3.80
2017-06-01T10:46:25.469Z,3.72
2017-06-01T10:48:53.704Z,4.40
2017-06-01T10:51:21.935Z,4.48
2017-06-01T10:53:50.174Z,4.52
2017-06-01T10:56:18.395Z,4.24
2017-06-01T10:58:46.640Z,4.70
2017-06-01T11:01:14.870Z,3.92
2017-06-01T11:03:43.122Z,3.30
2017-06-01T11:06:11.368Z,3.50
2017-06-01T11:08:39.602Z,3.62
2017-06-01T11:11:07.830Z,4.06
2017-06-01T11:13:35.314Z,2.92
2017-06-01T11:16:03.552Z,2.94
2017-06-01T11:18:31.774Z,3.18
2017-06-01T11:20:59.241Z,2.98
2017-06-01T11:23:27.482Z,3.68
2017-06-01T11:25:54.977Z,3.82
2017-06-01T11:28:23.206Z,3.00
2017-06-01T11:30:51.434Z,3.48
2017-06-01T11:33:19.669Z,3.20
2017-06-01T11:35:47.935Z,3.68
2017-06-01T11:38:16.167Z,4.02
2017-06-01T11:40:44.421Z,3.60
2017-06-01T11:43:12.645Z,3.64
2017-06-01T11:45:40.881Z,3.00
2017-06-01T11:48:09.111Z,3.58
2017-06-01T11:50:37.352Z,3.40
2017-06-01T11:53:05.578Z,3.48
2017-06-01T11:55:33.817Z,3.70
2017-06-01T11:58:02.046Z,4.06
2017-06-01T12:00:30.280Z,3.34
2017-06-01T12:02:58.525Z,3.14
2017-06-01T12:05:26.766Z,3.26
2017-06-01T12:07:55.018Z,3.36
2017-06-01T12:10:23.247Z,3.82
2017-06-01T12:12:51.500Z,3.04
2017-06-01T12:15:19.742Z,3.00
2017-06-01T12:17:47.982Z,3.88
2017-06-01T12:20:16.227Z,3.48
2017-06-01T12:22:44.477Z,4.16
2017-06-01T12:25:12.711Z,4.06
2017-06-01T12:27:40.946Z,4.54
2017-06-01T12:30:09.182Z,3.88
2017-06-01T12:32:37.417Z,3.78
2017-06-01T12:35:05.655Z,3.92
2017-06-01T12:37:33.883Z,3.78
2017-06-01T12:40:02.123Z,4.60
2017-06-01T12:42:30.361Z,4.46
2017-06-01T12:44:57.836Z,4.72
2017-06-01T12:47:26.061Z,4.32
2017-06-01T12:49:54.304Z,3.54
2017-06-01T12:52:22.538Z,3.52
2017-06-01T12:54:50.804Z,3.50
2017-06-01T12:57:19.034Z,3.84
2017-06-01T12:59:51.058Z,4.68
2017-06-01T13:02:19.294Z,4.28
2017-06-01T13:04:47.525Z,3.74
2017-06-01T13:07:16.086Z,3.68
2017-06-01T13:09:44.318Z,3.20
2017-06-01T13:12:12.560Z,3.80
2017-06-01T13:14:40.785Z,3.22
2017-06-01T13:17:09.022Z,3.94
2017-06-01T13:19:37.254Z,3.98
2017-06-01T13:22:05.491Z,3.72
2017-06-01T13:24:33.726Z,3.54
2017-06-01T13:27:01.982Z,3.12
2017-06-01T13:29:30.223Z,3.12
2017-06-01T13:31:58.449Z,3.42
2017-06-01T13:34:25.923Z,3.14
2017-06-01T13:36:54.145Z,2.98
2017-06-01T13:39:22.390Z,3.06
2017-06-01T13:41:50.618Z,3.20
2017-06-01T13:44:18.884Z,3.12
2017-06-01T13:46:47.118Z,2.56
2017-06-01T13:49:15.364Z,2.64
2017-06-01T13:51:42.830Z,2.62
2017-06-01T13:54:11.082Z,2.26
2017-06-01T13:56:39.314Z,2.92
2017-06-01T13:59:07.566Z,2.68
2017-06-01T14:01:35.040Z,2.62
2017-06-01T14:04:03.279Z,3.18
2017-06-01T14:06:30.791Z,2.70
2017-06-01T14:08:59.022Z,2.68
2017-06-01T14:11:27.274Z,3.22
2017-06-01T14:13:55.502Z,4.22
2017-06-01T14:16:23.742Z,3.20
2017-06-01T14:18:51.978Z,3.42
2017-06-01T14:21:20.214Z,3.20
2017-06-01T14:23:48.454Z,3.72
2017-06-01T14:26:16.690Z,3.16
2017-06-01T14:28:44.942Z,3.52
2017-06-01T14:31:13.173Z,3.98
2017-06-01T14:33:40.656Z,3.68
2017-06-01T14:36:08.882Z,3.16
2017-06-01T14:38:37.118Z,3.22
2017-06-01T14:41:05.353Z,3.06
2017-06-01T14:43:33.589Z,3.58
2017-06-01T14:46:01.823Z,3.60
2017-06-01T14:48:29.295Z,3.60
2017-06-01T14:50:57.518Z,3.76
2017-06-01T14:53:25.754Z,3.30
2017-06-01T14:55:54.014Z,3.86
2017-06-01T14:58:22.258Z,3.72
2017-06-01T15:00:50.474Z,3.36
2017-06-01T15:03:18.708Z,3.64
2017-06-01T15:05:46.947Z,2.86
2017-06-01T15:08:15.165Z,3.94
2017-06-01T15:10:43.408Z,3.60
2017-06-01T15:13:11.637Z,3.30
2017-06-01T15:15:39.870Z,3.56
2017-06-01T15:18:08.095Z,3.92
2017-06-01T15:20:36.338Z,3.48
2017-06-01T15:23:04.566Z,3.14
2017-06-01T15:25:32.801Z,3.14
2017-06-01T15:28:01.029Z,4.10
2017-06-01T15:30:29.286Z,3.78
2017-06-01T15:32:57.504Z,3.92
2017-06-01T15:35:25.734Z,3.64
2017-06-01T15:37:53.977Z,3.80
2017-06-01T15:40:22.199Z,3.42
2017-06-01T15:42:50.441Z,3.28
2017-06-01T15:45:18.685Z,3.60
2017-06-01T15:47:46.922Z,3.46
2017-06-01T15:50:15.149Z,3.28
2017-06-01T15:52:43.385Z,3.02
2017-06-01T15:55:11.612Z,3.36
2017-06-01T15:57:39.866Z,3.42
2017-06-01T16:00:08.094Z,3.20
2017-06-01T16:02:36.330Z,3.12
2017-06-01T16:05:04.561Z,3.32
2017-06-01T16:07:32.803Z,3.26
2017-06-01T16:10:01.031Z,3.02
2017-06-01T16:12:29.770Z,3.36
2017-06-01T16:14:58.014Z,3.24
2017-06-01T16:17:25.487Z,3.40
2017-06-01T16:19:53.717Z,3.42
2017-06-01T16:22:21.949Z,4.06
2017-06-01T16:24:50.189Z,3.56
2017-06-01T16:27:18.415Z,3.50
2017-06-01T16:29:46.657Z,3.48
2017-06-01T16:32:14.877Z,3.52
2017-06-01T16:34:43.109Z,3.70
2017-06-01T16:37:11.336Z,3.52
2017-06-01T16:39:39.580Z,3.82
2017-06-01T16:42:07.039Z,3.42
2017-06-01T16:44:35.294Z,3.30
2017-06-01T16:47:03.517Z,3.50
2017-06-01T16:49:31.742Z,3.22
2017-06-01T16:51:59.998Z,3.60
2017-06-01T16:54:28.222Z,2.66
2017-06-01T16:56:56.465Z,3.10
2017-06-01T16:59:24.693Z,3.40
2017-06-01T17:01:52.929Z,3.36
2017-06-01T17:04:21.167Z,3.40
2017-06-01T17:06:49.459Z,3.26
2017-06-01T17:09:17.690Z,3.50
2017-06-01T17:11:45.922Z,3.60
2017-06-01T17:14:14.181Z,3.46
2017-06-01T17:16:42.410Z,4.24
2017-06-01T17:19:10.638Z,4.16
2017-06-01T17:21:38.858Z,4.32
2017-06-01T17:24:07.114Z,3.92
2017-06-01T17:26:35.343Z,4.24
2017-06-01T17:29:03.581Z,4.22
2017-06-01T17:31:31.810Z,4.10
2017-06-01T17:34:00.542Z,3.80
2017-06-01T17:36:28.761Z,4.74
2017-06-01T17:38:56.997Z,4.40
2017-06-01T17:41:25.226Z,4.46
2017-06-01T17:43:53.466Z,4.44
2017-06-01T17:46:21.686Z,4.80
2017-06-01T17:48:49.931Z,4.66
2017-06-01T17:51:18.158Z,4.22
2017-06-01T17:53:46.397Z,4.92
2017-06-01T17:56:14.610Z,5.24
2017-06-01T17:58:42.838Z,4.42
2017-06-01T18:01:11.077Z,4.82
2017-06-01T18:03:39.305Z,4.76
2017-06-01T18:06:07.540Z,4.12
2017-06-01T18:08:35.758Z,4.16
2017-06-01T18:11:04.001Z,5.02
2017-06-01T18:13:32.213Z,3.82
2017-06-01T18:16:00.456Z,4.80
2017-06-01T18:18:28.669Z,4.48
2017-06-01T18:20:56.913Z,4.72
2017-06-01T18:23:25.133Z,4.54
2017-06-01T18:25:53.362Z,5.02
2017-06-01T18:28:21.601Z,4.64
2017-06-01T18:30:49.825Z,4.28
2017-06-01T18:33:18.065Z,3.64
2017-06-01T18:35:46.290Z,5.18
2017-06-01T18:38:14.527Z,4.24
2017-06-01T18:40:42.767Z,5.64
2017-06-01T18:43:11.014Z,5.18
2017-06-01T18:45:39.230Z,4.82
2017-06-01T18:48:07.466Z,4.40
2017-06-01T18:50:35.694Z,4.18
2017-06-01T18:53:03.936Z,4.88
2017-06-01T18:55:32.150Z,4.24
2017-06-01T18:58:00.438Z,4.62
2017-06-01T19:00:28.625Z,5.98
2017-06-01T19:02:56.097Z,5.78
2017-06-01T19:05:24.317Z,4.98
2017-06-01T19:07:52.552Z,5.64
2017-06-01T19:10:20.770Z,5.56
2017-06-01T19:12:49.005Z,5.28
2017-06-01T19:15:17.245Z,5.48
2017-06-01T19:17:45.473Z,4.96
2017-06-01T19:20:13.713Z,5.42
2017-06-01T19:22:41.929Z,4.86
2017-06-01T19:25:10.182Z,5.20
2017-06-01T19:27:38.394Z,5.66
2017-06-01T19:30:06.647Z,5.84
2017-06-01T19:32:34.861Z,5.72
2017-06-01T19:35:03.087Z,5.30
2017-06-01T19:37:31.325Z,5.32
2017-06-01T19:39:59.550Z,5.52
2017-06-01T19:42:27.796Z,4.64
2017-06-01T19:44:56.022Z,5.32
2017-06-01T19:47:24.257Z,6.34
2017-06-01T19:49:52.474Z,5.64
2017-06-01T19:52:20.714Z,5.54
2017-06-01T19:54:48.940Z,5.38
2017-06-01T19:57:17.164Z,8.32
2017-06-01T19:59:45.423Z,7.12
2017-06-01T20:02:13.646Z,7.06
2017-06-01T20:04:41.877Z,6.82
2017-06-01T20:07:10.110Z,6.66
2017-06-01T20:09:38.341Z,6.28
2017-06-01T20:12:06.569Z,6.22
2017-06-01T20:14:34.815Z,5.32
2017-06-01T20:17:03.037Z,6.02
2017-06-01T20:19:31.273Z,5.22
2017-06-01T20:21:59.497Z,5.72
2017-06-01T20:24:27.727Z,6.42
2017-06-01T20:26:55.966Z,6.70
2017-06-01T20:29:24.188Z,6.00
2017-06-01T20:31:52.421Z,6.04
2017-06-01T20:34:20.649Z,6.38
2017-06-01T20:36:48.885Z,7.06
2017-06-01T20:39:17.097Z,6.76
2017-06-01T20:41:45.336Z,6.22
2017-06-01T20:44:13.553Z,4.56
2017-06-01T20:46:41.786Z,5.78
2017-06-01T20:49:10.013Z,5.94
2017-06-01T20:51:38.264Z,6.16
2017-06-01T20:54:06.485Z,5.88
2017-06-01T20:56:34.701Z,4.90
2017-06-01T20:59:02.937Z,5.22
2017-06-01T21:01:31.168Z,6.78
2017-06-01T21:03:59.425Z,6.38
2017-06-01T21:06:27.646Z,6.60
2017-06-01T21:08:55.894Z,6.92
2017-06-01T21:11:24.113Z,7.02
2017-06-01T21:13:52.353Z,6.28
2017-06-01T21:16:20.584Z,5.98
2017-06-01T21:18:48.821Z,6.76
2017-06-01T21:21:17.033Z,7.32
2017-06-01T21:23:45.275Z,6.62
2017-06-01T21:26:13.497Z,6.32
2017-06-01T21:28:41.753Z,6.16
2017-06-01T21:31:09.983Z,5.56
2017-06-01T21:33:38.210Z,6.12
2017-06-01T21:36:06.446Z,6.72
2017-06-01T21:38:34.666Z,6.42
2017-06-01T21:41:02.902Z,5.88
2017-06-01T21:43:31.117Z,5.50
2017-06-01T21:45:59.350Z,6.28
2017-06-01T21:48:27.569Z,5.80
2017-06-01T21:50:55.821Z,5.40
2017-06-01T21:53:24.048Z,6.22
2017-06-01T21:55:52.277Z,5.62
2017-06-01T21:58:20.503Z,7.22
2017-06-01T22:00:48.739Z,6.08
2017-06-01T22:03:16.957Z,5.66
2017-06-01T22:05:45.210Z,6.08
2017-06-01T22:08:13.433Z,5.44
2017-06-01T22:10:41.649Z,6.08
2017-06-01T22:13:09.885Z,5.50
2017-06-01T22:15:38.121Z,5.28
2017-06-01T22:18:06.353Z,6.30
2017-06-01T22:20:34.578Z,5.90
2017-06-01T22:23:02.806Z,4.84
2017-06-01T22:25:31.037Z,5.14
2017-06-01T22:27:59.269Z,5.08
2017-06-01T22:30:27.489Z,6.42
2017-06-01T22:32:55.726Z,6.60
2017-06-01T22:35:23.946Z,8.00
2017-06-01T22:37:52.173Z,8.98
2017-06-01T22:40:20.389Z,6.78
2017-06-01T22:42:48.625Z,7.78
2017-06-01T22:45:16.849Z,6.40
2017-06-01T22:47:45.081Z,6.18
2017-06-01T22:50:13.301Z,5.92
2017-06-01T22:52:41.546Z,6.54
2017-06-01T22:55:09.769Z,5.70
2017-06-01T22:57:37.986Z,5.66
2017-06-01T23:00:06.217Z,5.08
2017-06-01T23:02:34.454Z,6.24
2017-06-01T23:05:02.698Z,5.82
2017-06-01T23:07:30.918Z,5.90
2017-06-01T23:09:59.159Z,6.08
2017-06-01T23:12:27.373Z,5.92
2017-06-01T23:14:55.605Z,4.64
2017-06-01T23:17:23.826Z,5.70
2017-06-01T23:19:52.069Z,5.22
2017-06-01T23:22:20.281Z,6.02
2017-06-01T23:24:48.521Z,5.66
2017-06-01T23:27:16.738Z,4.82
2017-06-01T23:29:44.957Z,6.36
2017-06-01T23:32:13.189Z,5.48
2017-06-01T23:34:41.412Z,5.50
2017-06-01T23:37:09.649Z,5.22
2017-06-01T23:39:37.881Z,5.84
2017-06-01T23:42:06.121Z,5.16
2017-06-01T23:44:34.337Z,6.24
2017-06-01T23:47:02.573Z,5.70
2017-06-01T23:49:30.801Z,6.94
2017-06-01T23:51:59.043Z,5.12
2017-06-01T23:54:27.253Z,5.94
2017-06-01T23:56:55.505Z,5.88
2017-06-01T23:59:23.735Z,4.86
